Time;durP1;ratioP1;P1;durP2;ratioP2;P2;SDS_P1;SDS_P2;PMS_P1;PMS_P2;Temp;Humidity;BMP_temperature;BMP_pressure;BME280_temperature;BME280_humidity;BME280_pressure;Samples;Min_cycle;Max_cycle;Signal;HPM_P1;HPM_P2
2023/07/22 00:01:30;;;;;;;5.82;2.67;;;;;;;;;;4967691;28;20065;-60
2023/07/22 00:03:56;;;;;;;3.90;2.55;;;;;;;;;;4969206;28;20041;-60
2023/07/22 00:06:22;;;;;;;6.55;2.92;;;;;;;;;;4971776;28;20039;-59
2023/07/22 00:08:50;;;;;;;5.32;2.70;;;;;;;;;;4958343;28;20030;-59
2023/07/22 00:11:16;;;;;;;5.20;3.00;;;;;;;;;;4934800;28;20039;-59
2023/07/22 00:13:43;;;;;;;5.13;3.00;;;;;;;;;;4951404;28;20043;-59
2023/07/22 00:16:10;;;;;;;5.72;3.08;;;;;;;;;;4966890;28;20042;-59
2023/07/22 00:18:37;;;;;;;6.82;2.78;;;;;;;;;;4948753;28;20042;-59
2023/07/22 00:21:03;;;;;;;4.43;2.72;;;;;;;;;;4949020;28;20402;-59
2023/07/22 00:23:30;;;;;;;5.13;2.92;;;;;;;;;;4963685;28;20035;-59
2023/07/22 00:25:56;;;;;;;5.90;2.88;;;;;;;;;;4966926;28;20061;-59
2023/07/22 00:28:22;;;;;;;6.40;3.17;;;;;;;;;;4968532;28;20041;-60
2023/07/22 00:30:49;;;;;;;7.47;3.13;;;;;;;;;;4968214;28;20498;-60
2023/07/22 00:33:15;;;;;;;4.78;2.97;;;;;;;;;;4969516;28;20105;-60
2023/07/22 00:35:41;;;;;;;5.85;3.03;;;;;;;;;;4969091;28;20390;-60
2023/07/22 00:38:09;;;;;;;11.10;3.25;;;;;;;;;;4977054;28;20061;-60
2023/07/22 00:40:35;;;;;;;6.90;3.20;;;;;;;;;;4954195;28;20053;-60
2023/07/22 00:43:02;;;;;;;5.93;2.92;;;;;;;;;;4951887;28;20039;-60
2023/07/22 00:45:28;;;;;;;5.95;3.45;;;;;;;;;;4968185;28;20039;-59
2023/07/22 00:47:54;;;;;;;6.30;3.25;;;;;;;;;;4972407;28;20050;-59
2023/07/22 00:50:21;;;;;;;5.75;3.10;;;;;;;;;;4968674;28;20047;-59
2023/07/22 00:52:48;;;;;;;5.90;2.90;;;;;;;;;;4971068;28;20061;-59
2023/07/22 00:55:14;;;;;;;7.55;3.30;;;;;;;;;;4953963;28;20038;-59
2023/07/22 00:57:40;;;;;;;7.57;3.25;;;;;;;;;;4973928;28;20167;-60
2023/07/22 01:00:07;;;;;;;6.70;2.97;;;;;;;;;;4954491;28;20052;-60
2023/07/22 01:02:34;;;;;;;4.68;2.83;;;;;;;;;;4969394;28;20073;-60
2023/07/22 01:05:00;;;;;;;8.10;3.33;;;;;;;;;;4972093;28;20058;-60
2023/07/22 01:07:27;;;;;;;5.68;3.33;;;;;;;;;;4973553;28;20050;-61
2023/07/22 01:10:00;;;;;;;6.70;3.30;;;;;;;;;;4955161;28;20034;-60
2023/07/22 01:12:26;;;;;;;5.60;2.83;;;;;;;;;;4968511;28;20057;-60
2023/07/22 01:14:53;;;;;;;10.20;3.80;;;;;;;;;;4952984;28;20050;-60
2023/07/22 01:17:19;;;;;;;6.45;3.47;;;;;;;;;;4967481;28;20053;-60
2023/07/22 01:19:46;;;;;;;6.70;3.00;;;;;;;;;;4937848;28;20422;-60
2023/07/22 01:22:13;;;;;;;6.97;2.97;;;;;;;;;;4950438;28;20159;-60
2023/07/22 01:24:39;;;;;;;5.70;3.47;;;;;;;;;;4972253;28;20387;-60
2023/07/22 01:27:08;;;;;;;5.70;3.25;;;;;;;;;;4970970;28;20043;-60
2023/07/22 01:29:35;;;;;;;8.02;3.03;;;;;;;;;;4967286;28;20043;-60
2023/07/22 01:32:01;;;;;;;6.55;3.50;;;;;;;;;;4969583;28;20397;-60
2023/07/22 01:34:27;;;;;;;7.28;3.33;;;;;;;;;;4966975;28;20054;-60
2023/07/22 01:36:53;;;;;;;7.07;3.47;;;;;;;;;;4952028;28;20046;-61
2023/07/22 01:39:20;;;;;;;9.07;3.58;;;;;;;;;;4969252;28;20054;-61
2023/07/22 01:41:47;;;;;;;7.50;3.40;;;;;;;;;;4969067;28;20042;-61
2023/07/22 01:44:14;;;;;;;7.75;3.65;;;;;;;;;;4969035;28;20034;-60
2023/07/22 01:46:41;;;;;;;5.75;2.97;;;;;;;;;;4969965;28;21304;-60
2023/07/22 01:49:12;;;;;;;6.40;3.25;;;;;;;;;;4972888;28;20046;-61
2023/07/22 01:51:42;;;;;;;6.20;3.13;;;;;;;;;;4969935;28;20046;-61
2023/07/22 01:54:09;;;;;;;4.90;3.00;;;;;;;;;;4953633;28;20034;-61
2023/07/22 01:56:36;;;;;;;6.20;3.28;;;;;;;;;;4966970;28;20071;-61
2023/07/22 01:59:02;;;;;;;5.78;2.92;;;;;;;;;;4955369;28;20037;-61
2023/07/22 02:01:29;;;;;;;7.97;3.67;;;;;;;;;;4968259;28;20378;-61
2023/07/22 02:03:55;;;;;;;7.13;3.55;;;;;;;;;;4954634;28;20041;-61
2023/07/22 02:06:22;;;;;;;5.43;3.25;;;;;;;;;;4957215;28;20042;-60
2023/07/22 02:08:48;;;;;;;6.65;3.55;;;;;;;;;;4961263;28;20034;-60
2023/07/22 02:11:14;;;;;;;5.82;3.10;;;;;;;;;;4953518;28;20030;-60
2023/07/22 02:13:40;;;;;;;6.93;3.40;;;;;;;;;;4969012;28;20050;-60
2023/07/22 02:16:07;;;;;;;7.10;3.67;;;;;;;;;;4969316;28;20042;-61
2023/07/22 02:18:33;;;;;;;6.57;3.67;;;;;;;;;;4966916;28;20058;-60
2023/07/22 02:20:59;;;;;;;5.53;2.95;;;;;;;;;;4969327;28;20022;-60
2023/07/22 02:23:25;;;;;;;6.35;3.28;;;;;;;;;;4968100;28;20065;-60
2023/07/22 02:25:53;;;;;;;5.82;3.35;;;;;;;;;;4970183;28;20045;-61
2023/07/22 02:28:21;;;;;;;6.90;3.67;;;;;;;;;;4972779;28;20045;-61
2023/07/22 02:30:49;;;;;;;6.55;2.90;;;;;;;;;;4969194;28;20031;-61
2023/07/22 02:33:15;;;;;;;5.80;3.22;;;;;;;;;;4970554;28;20046;-60
2023/07/22 02:35:42;;;;;;;7.38;3.33;;;;;;;;;;4974392;28;20049;-61
2023/07/22 02:38:08;;;;;;;7.22;3.30;;;;;;;;;;4971830;28;20050;-62
2023/07/22 02:40:35;;;;;;;5.18;3.10;;;;;;;;;;4936051;28;20054;-62
2023/07/22 02:43:01;;;;;;;6.63;3.33;;;;;;;;;;4952605;28;20047;-63
2023/07/22 02:45:28;;;;;;;5.15;3.00;;;;;;;;;;4969246;28;20034;-60
2023/07/22 02:47:54;;;;;;;8.52;4.18;;;;;;;;;;4970694;28;20026;-61
2023/07/22 02:50:20;;;;;;;5.78;2.85;;;;;;;;;;4967478;28;20039;-61
2023/07/22 02:52:46;;;;;;;5.75;3.20;;;;;;;;;;4967841;28;20479;-61
2023/07/22 02:55:18;;;;;;;5.10;3.17;;;;;;;;;;4971069;28;20026;-60
2023/07/22 02:57:46;;;;;;;6.53;3.10;;;;;;;;;;4955258;28;20050;-61
2023/07/22 03:00:16;;;;;;;6.53;3.42;;;;;;;;;;4969791;28;20033;-60
2023/07/22 03:02:42;;;;;;;9.00;3.17;;;;;;;;;;4965861;28;20035;-61
2023/07/22 03:05:09;;;;;;;11.05;3.60;;;;;;;;;;4970404;28;20070;-60
2023/07/22 03:07:39;;;;;;;7.60;3.33;;;;;;;;;;4953877;28;20047;-61
2023/07/22 03:10:06;;;;;;;;;;;;;;;;;;4968361;28;20026;-61
2023/07/22 03:12:32;;;;;;;6.78;3.30;;;;;;;;;;4963988;28;20399;-61
2023/07/22 03:14:58;;;;;;;6.10;3.58;;;;;;;;;;4966094;28;20046;-61
2023/07/22 03:17:25;;;;;;;9.50;3.85;;;;;;;;;;4966333;28;20037;-61
2023/07/22 03:19:51;;;;;;;9.10;3.50;;;;;;;;;;4950364;28;20054;-61
2023/07/22 03:22:18;;;;;;;6.60;3.40;;;;;;;;;;4965760;28;20049;-60
2023/07/22 03:24:45;;;;;;;8.85;3.15;;;;;;;;;;4972219;28;20223;-61
2023/07/22 03:27:13;;;;;;;4.95;3.00;;;;;;;;;;4969413;28;20038;-61
2023/07/22 03:29:41;;;;;;;8.73;3.65;;;;;;;;;;4968530;28;20065;-61
2023/07/22 03:32:07;;;;;;;9.43;3.83;;;;;;;;;;4967762;28;20048;-62
2023/07/22 03:34:35;;;;;;;7.28;3.42;;;;;;;;;;4967044;28;20054;-61
2023/07/22 03:37:01;;;;;;;9.02;3.60;;;;;;;;;;4969325;28;20517;-61
2023/07/22 03:39:27;;;;;;;8.07;3.75;;;;;;;;;;4937378;28;20398;-60
2023/07/22 03:41:53;;;;;;;9.38;3.90;;;;;;;;;;4949574;28;20030;-60
2023/07/22 03:44:20;;;;;;;6.63;3.20;;;;;;;;;;4949480;28;20042;-60
2023/07/22 03:46:46;;;;;;;6.82;3.30;;;;;;;;;;4950942;28;20038;-60
2023/07/22 03:49:12;;;;;;;9.10;3.30;;;;;;;;;;4951814;28;20046;-61
2023/07/22 03:51:38;;;;;;;7.30;3.40;;;;;;;;;;4973825;28;20043;-61
2023/07/22 03:54:04;;;;;;;8.35;3.75;;;;;;;;;;4948733;28;20042;-61
2023/07/22 03:56:30;;;;;;;7.07;3.45;;;;;;;;;;4965789;28;20053;-61
2023/07/22 03:58:57;;;;;;;7.30;3.22;;;;;;;;;;4968339;28;20042;-61
2023/07/22 04:01:23;;;;;;;9.63;3.72;;;;;;;;;;4963812;28;20050;-61
2023/07/22 04:03:49;;;;;;;7.82;4.30;;;;;;;;;;4968913;28;20239;-61
2023/07/22 04:06:15;;;;;;;8.93;3.17;;;;;;;;;;4945801;28;20069;-60
2023/07/22 04:08:41;;;;;;;7.13;3.75;;;;;;;;;;4967120;28;20066;-61
2023/07/22 04:11:08;;;;;;;10.32;3.88;;;;;;;;;;4966003;28;20026;-61
2023/07/22 04:13:34;;;;;;;7.03;3.53;;;;;;;;;;4948558;28;20049;-60
2023/07/22 04:16:00;;;;;;;6.57;3.38;;;;;;;;;;4970086;28;20106;-61
2023/07/22 04:18:33;;;;;;;6.93;3.63;;;;;;;;;;4947915;28;20039;-60
2023/07/22 04:20:59;;;;;;;7.45;3.80;;;;;;;;;;4966079;28;20042;-61
2023/07/22 04:23:25;;;;;;;8.07;4.07;;;;;;;;;;4947199;28;20051;-60
2023/07/22 04:25:52;;;;;;;9.98;5.07;;;;;;;;;;4966615;28;20035;-60
2023/07/22 04:28:18;;;;;;;10.75;4.45;;;;;;;;;;4966009;28;20386;-60
2023/07/22 04:30:55;;;;;;;11.10;5.05;;;;;;;;;;4951794;28;20035;-60
2023/07/22 04:33:21;;;;;;;9.43;5.75;;;;;;;;;;4966134;28;20034;-60
2023/07/22 04:35:47;;;;;;;12.25;5.97;;;;;;;;;;4968573;28;20310;-60
2023/07/22 04:38:17;;;;;;;14.13;5.80;;;;;;;;;;4968609;28;20038;-58
2023/07/22 04:40:43;;;;;;;10.35;5.57;;;;;;;;;;4968513;28;20027;-60
2023/07/22 04:43:10;;;;;;;10.00;5.72;;;;;;;;;;4970779;28;20053;-60
2023/07/22 04:45:36;;;;;;;11.48;5.60;;;;;;;;;;4953794;28;20043;-60
2023/07/22 04:48:02;;;;;;;12.23;6.03;;;;;;;;;;4969654;28;20034;-60
2023/07/22 04:50:28;;;;;;;10.13;5.50;;;;;;;;;;4950575;28;20050;-61
2023/07/22 04:52:55;;;;;;;10.98;5.70;;;;;;;;;;4968224;28;20097;-63
2023/07/22 04:55:21;;;;;;;13.20;6.18;;;;;;;;;;4949226;28;20050;-61
2023/07/22 04:57:47;;;;;;;9.70;5.78;;;;;;;;;;4969260;28;20406;-61
2023/07/22 05:00:16;;;;;;;8.45;5.40;;;;;;;;;;4963999;28;20054;-60
2023/07/22 05:02:46;;;;;;;12.43;5.43;;;;;;;;;;4968252;28;20057;-61
2023/07/22 05:05:13;;;;;;;11.07;5.13;;;;;;;;;;4964305;28;20478;-60
2023/07/22 05:07:39;;;;;;;10.23;4.90;;;;;;;;;;4968056;28;20174;-63
2023/07/22 05:10:11;;;;;;;14.63;5.38;;;;;;;;;;4951648;28;20050;-62
2023/07/22 05:12:38;;;;;;;9.70;5.40;;;;;;;;;;4933707;28;20054;-62
2023/07/22 05:15:06;;;;;;;12.85;5.43;;;;;;;;;;4949959;28;20051;-61
2023/07/22 05:17:32;;;;;;;9.68;4.65;;;;;;;;;;4968482;28;21934;-60
2023/07/22 05:19:58;;;;;;;8.88;5.10;;;;;;;;;;4967307;28;20407;-61
2023/07/22 05:22:25;;;;;;;9.13;4.82;;;;;;;;;;4969819;28;20062;-60
2023/07/22 05:24:51;;;;;;;10.57;5.35;;;;;;;;;;4967610;28;20050;-62
2023/07/22 05:27:18;;;;;;;13.07;5.18;;;;;;;;;;4967004;28;20038;-62
2023/07/22 05:29:45;;;;;;;10.82;5.82;;;;;;;;;;4966383;28;20058;-60
2023/07/22 05:32:11;;;;;;;13.57;5.30;;;;;;;;;;4968631;28;20061;-61
2023/07/22 05:34:37;;;;;;;12.68;6.18;;;;;;;;;;4969143;28;20059;-61
2023/07/22 05:37:03;;;;;;;12.30;5.88;;;;;;;;;;4952177;28;20043;-62
2023/07/22 05:39:30;;;;;;;14.82;5.97;;;;;;;;;;4968731;28;20054;-61
2023/07/22 05:41:56;;;;;;;12.90;5.88;;;;;;;;;;4934525;29;20039;-60
2023/07/22 05:44:22;;;;;;;10.05;5.15;;;;;;;;;;4966952;28;20051;-60
2023/07/22 05:46:48;;;;;;;13.15;5.75;;;;;;;;;;4973204;28;20034;-61
2023/07/22 05:49:15;;;;;;;10.68;5.70;;;;;;;;;;4968779;28;20065;-60
2023/07/22 05:51:41;;;;;;;12.40;5.78;;;;;;;;;;4972879;28;20046;-60
2023/07/22 05:54:08;;;;;;;10.95;5.18;;;;;;;;;;4972113;28;20053;-61
2023/07/22 05:56:34;;;;;;;13.25;5.32;;;;;;;;;;4952762;28;20046;-60
2023/07/22 05:59:00;;;;;;;14.35;5.93;;;;;;;;;;4952468;28;20038;-61
2023/07/22 06:01:26;;;;;;;13.05;5.40;;;;;;;;;;4968586;28;20039;-60
2023/07/22 06:03:53;;;;;;;16.08;5.82;;;;;;;;;;4933986;29;20039;-61
2023/07/22 06:06:19;;;;;;;12.15;5.28;;;;;;;;;;4967582;28;20046;-61
2023/07/22 06:08:45;;;;;;;13.02;5.65;;;;;;;;;;4955360;28;20042;-61
2023/07/22 06:11:11;;;;;;;13.95;5.75;;;;;;;;;;4968085;28;20046;-61
2023/07/22 06:13:37;;;;;;;11.13;4.50;;;;;;;;;;4967016;28;20045;-61
2023/07/22 06:16:04;;;;;;;9.02;3.67;;;;;;;;;;4966785;28;20039;-61
2023/07/22 06:18:30;;;;;;;11.77;3.67;;;;;;;;;;4951020;28;20041;-60
2023/07/22 06:20:56;;;;;;;7.65;4.63;;;;;;;;;;4968625;28;20119;-60
2023/07/22 06:23:22;;;;;;;10.15;3.45;;;;;;;;;;4966626;28;20042;-60
2023/07/22 06:25:48;;;;;;;8.40;3.55;;;;;;;;;;4967675;28;20042;-60
2023/07/22 06:28:15;;;;;;;9.63;3.83;;;;;;;;;;4967515;28;20043;-60
2023/07/22 06:30:41;;;;;;;8.52;4.00;;;;;;;;;;4970122;28;20034;-61
2023/07/22 06:33:07;;;;;;;10.77;4.03;;;;;;;;;;4968737;28;20047;-61
2023/07/22 06:35:33;;;;;;;10.35;4.47;;;;;;;;;;4933826;28;20049;-61
2023/07/22 06:37:59;;;;;;;11.10;4.10;;;;;;;;;;4969803;28;20034;-61
2023/07/22 06:40:25;;;;;;;11.35;3.85;;;;;;;;;;4967641;28;20053;-62
2023/07/22 06:42:52;;;;;;;11.48;3.83;;;;;;;;;;4967908;28;20053;-61
2023/07/22 06:45:18;;;;;;;8.80;3.45;;;;;;;;;;4967829;28;20059;-61
2023/07/22 06:47:46;;;;;;;7.07;3.50;;;;;;;;;;4953087;28;20046;-61
2023/07/22 06:50:12;;;;;;;7.30;3.28;;;;;;;;;;4966889;28;20046;-61
2023/07/22 06:52:38;;;;;;;7.38;3.38;;;;;;;;;;4949831;28;20065;-61
2023/07/22 06:55:05;;;;;;;6.68;3.30;;;;;;;;;;4953595;28;20039;-61
2023/07/22 06:57:33;;;;;;;7.95;3.38;;;;;;;;;;4949997;28;20030;-61
2023/07/22 06:59:59;;;;;;;7.35;3.38;;;;;;;;;;4953183;28;20119;-62
2023/07/22 07:02:25;;;;;;;7.43;2.90;;;;;;;;;;4966515;28;20039;-61
2023/07/22 07:04:51;;;;;;;7.50;3.15;;;;;;;;;;4966968;28;20054;-61
2023/07/22 07:07:18;;;;;;;6.20;3.03;;;;;;;;;;4966518;28;20038;-58
2023/07/22 07:09:44;;;;;;;6.63;2.90;;;;;;;;;;4951101;28;20038;-60
2023/07/22 07:12:11;;;;;;;9.13;4.38;;;;;;;;;;4966378;28;20046;-60
2023/07/22 07:14:37;;;;;;;8.40;3.75;;;;;;;;;;4950337;28;20123;-60
2023/07/22 07:17:03;;;;;;;9.00;3.30;;;;;;;;;;4965401;28;20110;-60
2023/07/22 07:19:30;;;;;;;5.15;3.20;;;;;;;;;;4964859;28;20050;-61
2023/07/22 07:21:56;;;;;;;9.00;3.78;;;;;;;;;;4964765;28;20058;-61
2023/07/22 07:24:22;;;;;;;7.70;3.53;;;;;;;;;;4965344;28;20039;-61
2023/07/22 07:26:48;;;;;;;5.40;3.20;;;;;;;;;;4967370;28;20030;-61
2023/07/22 07:29:14;;;;;;;7.60;3.28;;;;;;;;;;4970135;28;20042;-61
2023/07/22 07:31:40;;;;;;;7.38;3.85;;;;;;;;;;4951695;28;20394;-61
2023/07/22 07:34:07;;;;;;;6.72;3.47;;;;;;;;;;4964620;28;20047;-61
2023/07/22 07:36:34;;;;;;;9.43;3.70;;;;;;;;;;4942058;28;20058;-61
2023/07/22 07:39:00;;;;;;;4.45;3.03;;;;;;;;;;4953814;28;20475;-60
2023/07/22 07:41:27;;;;;;;5.88;3.00;;;;;;;;;;4965654;28;20057;-60
2023/07/22 07:43:54;;;;;;;4.88;2.63;;;;;;;;;;4963190;28;20043;-61
2023/07/22 07:46:26;;;;;;;6.10;3.00;;;;;;;;;;4965595;28;20039;-61
2023/07/22 07:48:59;;;;;;;8.23;3.30;;;;;;;;;;4970206;28;20034;-60
2023/07/22 07:51:26;;;;;;;5.28;2.80;;;;;;;;;;4964977;28;20035;-60
2023/07/22 07:53:53;;;;;;;10.02;5.85;;;;;;;;;;4965769;28;20115;-60
2023/07/22 07:56:20;;;;;;;6.57;2.92;;;;;;;;;;4967875;28;20030;-61
2023/07/22 07:58:47;;;;;;;8.13;2.80;;;;;;;;;;4968701;28;20526;-61
2023/07/22 08:01:14;;;;;;;5.03;2.75;;;;;;;;;;4965129;28;20037;-60
2023/07/22 08:03:44;;;;;;;7.82;4.45;;;;;;;;;;4950625;28;20044;-60
2023/07/22 08:06:11;;;;;;;4.88;2.38;;;;;;;;;;4972876;28;20141;-60
2023/07/22 08:08:38;;;;;;;6.07;2.75;;;;;;;;;;4966358;28;20062;-60
2023/07/22 08:11:10;;;;;;;4.07;2.78;;;;;;;;;;4967494;28;20019;-61
2023/07/22 08:13:37;;;;;;;6.45;2.78;;;;;;;;;;4965228;28;20050;-61
2023/07/22 08:16:05;;;;;;;4.30;2.75;;;;;;;;;;4967090;28;20037;-61
2023/07/22 08:18:32;;;;;;;4.75;2.60;;;;;;;;;;4963740;28;20050;-60
2023/07/22 08:20:59;;;;;;;4.78;2.30;;;;;;;;;;4963938;28;20047;-61
2023/07/22 08:23:25;;;;;;;3.88;2.30;;;;;;;;;;4964053;28;20505;-60
2023/07/22 08:25:52;;;;;;;4.22;2.17;;;;;;;;;;4964700;28;20042;-61
2023/07/22 08:28:18;;;;;;;5.13;2.55;;;;;;;;;;4948073;28;20042;-59
2023/07/22 08:30:45;;;;;;;4.85;2.70;;;;;;;;;;4968530;28;20035;-60
2023/07/22 08:33:11;;;;;;;7.00;3.05;;;;;;;;;;4969695;28;20038;-60
2023/07/22 08:35:39;;;;;;;4.53;2.40;;;;;;;;;;4949212;28;20046;-60
2023/07/22 08:38:06;;;;;;;5.40;2.55;;;;;;;;;;4974263;28;20039;-60
2023/07/22 08:40:40;;;;;;;6.93;2.45;;;;;;;;;;4948305;28;20058;-60
2023/07/22 08:43:08;;;;;;;5.05;2.60;;;;;;;;;;4967743;28;20037;-61
2023/07/22 08:45:36;;;;;;;5.30;2.90;;;;;;;;;;4946875;28;20042;-61
2023/07/22 08:48:07;;;;;;;4.13;2.58;;;;;;;;;;4952458;28;20038;-61
2023/07/22 08:50:44;;;;;;;6.68;2.60;;;;;;;;;;4965904;28;20058;-60
2023/07/22 08:53:12;;;;;;;4.80;2.60;;;;;;;;;;4968958;28;20047;-60
2023/07/22 08:55:42;;;;;;;4.70;2.38;;;;;;;;;;4967566;28;20042;-61
2023/07/22 08:58:09;;;;;;;4.97;2.60;;;;;;;;;;4943352;28;20042;-61
2023/07/22 09:00:36;;;;;;;4.25;2.30;;;;;;;;;;4966384;28;20042;-61
2023/07/22 09:03:04;;;;;;;4.03;2.55;;;;;;;;;;4947577;28;20062;-61
2023/07/22 09:05:34;;;;;;;6.35;2.90;;;;;;;;;;4965040;28;20054;-61
2023/07/22 09:08:06;;;;;;;4.28;2.60;;;;;;;;;;4949057;28;20047;-61
2023/07/22 09:10:33;;;;;;;4.68;2.53;;;;;;;;;;4968941;28;20046;-61
2023/07/22 09:13:00;;;;;;;3.60;2.17;;;;;;;;;;4970028;28;20039;-61
2023/07/22 09:15:27;;;;;;;4.68;2.42;;;;;;;;;;4967782;28;20054;-62
2023/07/22 09:17:54;;;;;;;2.85;2.20;;;;;;;;;;4950756;28;20040;-61
2023/07/22 09:20:21;;;;;;;3.38;2.20;;;;;;;;;;4968586;28;20054;-61
2023/07/22 09:22:51;;;;;;;3.95;2.40;;;;;;;;;;4969323;28;20038;-61
2023/07/22 09:25:20;;;;;;;3.53;2.25;;;;;;;;;;4969735;28;20051;-61
2023/07/22 09:27:47;;;;;;;;;;;;;;;;;;4972941;28;20051;-61
2023/07/22 09:30:29;;;;;;;6.22;2.72;;;;;;;;;;4938624;28;19922;-59
2023/07/22 09:32:57;;;;;;;2.72;2.05;;;;;;;;;;4951697;28;20050;-61
2023/07/22 09:35:27;;;;;;;4.35;2.08;;;;;;;;;;4966756;28;20041;-63
2023/07/22 09:37:53;;;;;;;4.30;2.25;;;;;;;;;;4969832;28;20059;-61
2023/07/22 09:40:22;;;;;;;3.92;2.10;;;;;;;;;;4967876;28;20047;-61
2023/07/22 09:42:50;;;;;;;3.20;2.08;;;;;;;;;;4949505;28;20510;-61
2023/07/22 09:45:18;;;;;;;3.25;1.85;;;;;;;;;;4970017;28;20050;-61
2023/07/22 09:47:52;;;;;;;4.15;2.30;;;;;;;;;;4967680;28;20035;-61
2023/07/22 09:50:23;;;;;;;3.80;2.42;;;;;;;;;;4968839;28;20050;-62
2023/07/22 09:52:52;;;;;;;4.88;2.78;;;;;;;;;;4972496;28;20030;-61
2023/07/22 09:55:24;;;;;;;3.42;1.92;;;;;;;;;;4931510;28;20042;-61
2023/07/22 09:57:53;;;;;;;5.43;3.10;;;;;;;;;;4964763;28;20045;-62
2023/07/22 10:00:20;;;;;;;3.20;2.10;;;;;;;;;;4968727;28;20042;-61
2023/07/22 10:02:51;;;;;;;3.15;2.30;;;;;;;;;;4968575;28;20038;-61
2023/07/22 10:05:22;;;;;;;2.33;1.70;;;;;;;;;;4950971;28;20356;-61
2023/07/22 10:07:50;;;;;;;4.40;1.73;;;;;;;;;;4969841;28;20368;-61
2023/07/22 10:10:19;;;;;;;2.95;1.83;;;;;;;;;;4966086;28;20046;-61
2023/07/22 10:12:46;;;;;;;;;;;;;;;;;;4968019;28;20051;-63
2023/07/22 10:15:14;;;;;;;4.60;2.10;;;;;;;;;;4967746;28;19922;-62
2023/07/22 10:17:41;;;;;;;3.03;2.00;;;;;;;;;;4935285;28;20034;-62
2023/07/22 10:20:14;;;;;;;3.53;2.22;;;;;;;;;;4967231;28;20298;-61
2023/07/22 10:22:43;;;;;;;3.60;2.00;;;;;;;;;;4950956;28;20307;-62
2023/07/22 10:25:10;;;;;;;;;;;;;;;;;;4969455;28;20070;-61
2023/07/22 10:27:39;;;;;;;2.22;1.60;;;;;;;;;;4952678;28;19917;-61
2023/07/22 10:30:06;;;;;;;3.90;2.08;;;;;;;;;;4950118;28;20034;-62
2023/07/22 10:32:36;;;;;;;5.40;1.60;;;;;;;;;;4964998;28;20364;-62
2023/07/22 10:35:03;;;;;;;2.53;1.80;;;;;;;;;;4966415;28;20046;-62
2023/07/22 10:37:31;;;;;;;2.53;1.70;;;;;;;;;;4968255;28;20039;-63
2023/07/22 10:40:24;;;;;;;2.40;1.60;;;;;;;;;;4970923;28;20046;-62
2023/07/22 10:43:04;;;;;;;1.90;1.67;;;;;;;;;;4962090;28;20390;-62
2023/07/22 10:45:33;;;;;;;4.13;1.75;;;;;;;;;;4949977;28;20050;-62
2023/07/22 10:48:07;;;;;;;7.75;1.80;;;;;;;;;;4970613;28;20054;-61
2023/07/22 10:50:40;;;;;;;4.70;1.65;;;;;;;;;;4968668;28;20046;-61
2023/07/22 10:53:13;;;;;;;3.40;2.20;;;;;;;;;;4964322;28;20030;-61
2023/07/22 10:56:17;;;;;;;2.83;1.80;;;;;;;;;;4968895;28;20057;-61
2023/07/22 10:58:46;;;;;;;3.58;2.45;;;;;;;;;;4969539;28;20050;-61
2023/07/22 11:01:28;;;;;;;4.55;1.95;;;;;;;;;;4966807;28;20047;-60
2023/07/22 11:04:31;;;;;;;3.38;1.90;;;;;;;;;;4966607;28;20046;-60
2023/07/22 11:07:00;;;;;;;4.20;2.00;;;;;;;;;;4962429;28;20039;-59
2023/07/22 11:12:00;;;;;;;5.55;1.90;;;;;;;;;;4950558;28;20031;-61
2023/07/22 11:14:28;;;;;;;1.98;1.60;;;;;;;;;;4965940;28;20055;-60
2023/07/22 11:16:57;;;;;;;3.42;1.85;;;;;;;;;;4968119;28;20029;-63
2023/07/22 11:19:23;;;;;;;;;;;;;;;;;;4968444;28;20053;-63
2023/07/22 11:21:51;;;;;;;3.45;2.03;;;;;;;;;;4965501;28;19918;-62
2023/07/22 11:24:18;;;;;;;2.70;1.95;;;;;;;;;;4965632;28;20045;-62
2023/07/22 11:26:46;;;;;;;3.00;1.80;;;;;;;;;;4969946;28;20498;-63
2023/07/22 11:29:14;;;;;;;3.58;1.60;;;;;;;;;;4969586;28;20038;-62
2023/07/22 11:31:43;;;;;;;2.35;1.83;;;;;;;;;;4967380;28;20045;-63
2023/07/22 11:34:09;;;;;;;5.03;2.00;;;;;;;;;;4968558;28;20490;-63
2023/07/22 11:36:35;;;;;;;4.93;2.20;;;;;;;;;;4966516;28;20042;-63
2023/07/22 11:39:07;;;;;;;5.45;1.92;;;;;;;;;;4954141;28;20046;-62
2023/07/22 11:41:34;;;;;;;3.08;1.80;;;;;;;;;;4963965;28;20234;-62
2023/07/22 11:44:01;;;;;;;3.58;2.10;;;;;;;;;;4965260;28;20047;-61
2023/07/22 11:46:28;;;;;;;2.67;1.70;;;;;;;;;;4949693;28;20046;-63
2023/07/22 11:48:55;;;;;;;5.00;2.10;;;;;;;;;;4972048;28;20022;-62
2023/07/22 11:51:23;;;;;;;3.25;1.90;;;;;;;;;;4967378;28;20029;-62
2023/07/22 11:53:54;;;;;;;3.75;1.83;;;;;;;;;;4964661;28;20049;-63
2023/07/22 11:56:27;;;;;;;2.67;2.10;;;;;;;;;;4957037;28;20037;-62
2023/07/22 11:58:56;;;;;;;2.72;1.90;;;;;;;;;;4965917;28;20061;-63
2023/07/22 12:01:23;;;;;;;2.85;1.95;;;;;;;;;;4964491;28;20031;-61
2023/07/22 12:03:55;;;;;;;2.58;1.98;;;;;;;;;;4962597;28;20039;-62
2023/07/22 12:06:25;;;;;;;2.72;2.25;;;;;;;;;;4965802;28;20026;-62
2023/07/22 12:08:51;;;;;;;3.63;2.10;;;;;;;;;;4967265;28;20043;-62
2023/07/22 12:11:19;;;;;;;3.72;1.90;;;;;;;;;;4948536;28;20039;-60
2023/07/22 12:13:50;;;;;;;6.43;1.85;;;;;;;;;;4965148;28;20035;-62
2023/07/22 12:16:25;;;;;;;2.85;2.10;;;;;;;;;;4947749;28;20023;-61
2023/07/22 12:18:55;;;;;;;3.75;2.20;;;;;;;;;;4966497;28;20034;-62
2023/07/22 12:21:22;;;;;;;3.83;2.10;;;;;;;;;;4964120;28;20047;-62
2023/07/22 12:23:48;;;;;;;3.10;2.10;;;;;;;;;;4949818;28;20518;-62
2023/07/22 12:26:14;;;;;;;4.55;2.30;;;;;;;;;;4968171;28;20045;-61
2023/07/22 12:28:41;;;;;;;5.75;2.53;;;;;;;;;;4967215;28;20045;-62
2023/07/22 12:31:07;;;;;;;2.97;2.03;;;;;;;;;;4967878;28;20047;-60
2023/07/22 12:33:33;;;;;;;5.07;2.15;;;;;;;;;;4948530;28;20051;-62
2023/07/22 12:35:59;;;;;;;3.97;1.80;;;;;;;;;;4967210;28;20049;-61
2023/07/22 12:38:25;;;;;;;2.65;1.95;;;;;;;;;;4966902;28;20051;-63
2023/07/22 12:40:52;;;;;;;4.38;2.10;;;;;;;;;;4950347;28;20039;-61
2023/07/22 12:43:18;;;;;;;6.63;1.98;;;;;;;;;;4949889;28;20035;-61
2023/07/22 12:45:44;;;;;;;3.60;1.85;;;;;;;;;;4957307;28;20034;-62
2023/07/22 12:48:10;;;;;;;3.05;2.00;;;;;;;;;;4974066;28;20034;-62
2023/07/22 12:50:37;;;;;;;3.38;2.30;;;;;;;;;;4953630;28;20390;-62
2023/07/22 12:53:03;;;;;;;3.28;2.55;;;;;;;;;;4972732;28;20047;-61
2023/07/22 12:55:29;;;;;;;5.03;2.10;;;;;;;;;;4954437;28;20069;-63
2023/07/22 12:57:55;;;;;;;2.50;2.00;;;;;;;;;;4939031;28;20442;-62
2023/07/22 13:00:22;;;;;;;5.28;2.25;;;;;;;;;;4953009;28;20042;-62
2023/07/22 13:02:48;;;;;;;3.25;2.20;;;;;;;;;;4967855;28;20054;-62
2023/07/22 13:05:14;;;;;;;4.13;2.40;;;;;;;;;;4969338;28;20042;-61
2023/07/22 13:07:40;;;;;;;2.88;2.10;;;;;;;;;;4969109;28;20038;-63
2023/07/22 13:10:10;;;;;;;2.67;1.90;;;;;;;;;;4970258;28;20059;-62
2023/07/22 13:12:37;;;;;;;3.10;2.03;;;;;;;;;;4967145;28;20050;-62
2023/07/22 13:15:04;;;;;;;3.33;2.10;;;;;;;;;;4969896;28;20050;-61
2023/07/22 13:17:31;;;;;;;2.03;1.83;;;;;;;;;;4981131;28;20031;-62
2023/07/22 13:19:57;;;;;;;5.30;2.38;;;;;;;;;;4950895;28;20050;-62
2023/07/22 13:22:24;;;;;;;3.88;2.28;;;;;;;;;;4965172;28;20047;-61
2023/07/22 13:24:50;;;;;;;4.47;2.20;;;;;;;;;;4937726;28;20037;-61
2023/07/22 13:27:16;;;;;;;2.60;2.00;;;;;;;;;;4967816;28;20038;-60
2023/07/22 13:29:42;;;;;;;3.40;2.38;;;;;;;;;;4971424;28;20123;-63
2023/07/22 13:32:08;;;;;;;4.03;2.42;;;;;;;;;;4969287;28;20022;-60
2023/07/22 13:34:34;;;;;;;3.67;1.98;;;;;;;;;;4966067;28;20486;-61
2023/07/22 13:37:02;;;;;;;2.88;2.13;;;;;;;;;;4970573;28;20042;-60
2023/07/22 13:39:29;;;;;;;3.80;2.15;;;;;;;;;;4970754;28;20521;-61
2023/07/22 13:41:55;;;;;;;2.33;1.95;;;;;;;;;;4970668;28;20038;-61
2023/07/22 13:44:21;;;;;;;2.78;2.15;;;;;;;;;;4968802;28;20030;-61
2023/07/22 13:46:47;;;;;;;2.58;2.15;;;;;;;;;;4969576;28;20054;-60
2023/07/22 13:49:15;;;;;;;3.85;2.28;;;;;;;;;;4968882;28;20062;-61
2023/07/22 13:51:41;;;;;;;2.28;2.00;;;;;;;;;;4969181;28;20055;-62
2023/07/22 13:54:07;;;;;;;2.40;2.08;;;;;;;;;;4951261;28;20046;-62
2023/07/22 13:56:33;;;;;;;4.70;2.00;;;;;;;;;;4969617;28;20082;-63
2023/07/22 13:59:04;;;;;;;4.45;2.15;;;;;;;;;;4968040;28;20050;-63
2023/07/22 14:01:31;;;;;;;4.00;2.47;;;;;;;;;;4965573;28;20050;-62
2023/07/22 14:03:57;;;;;;;2.33;2.13;;;;;;;;;;4949806;28;20039;-62
2023/07/22 14:06:23;;;;;;;2.83;2.10;;;;;;;;;;4966702;28;20490;-62
2023/07/22 14:08:49;;;;;;;2.80;2.00;;;;;;;;;;4967677;28;20053;-62
2023/07/22 14:11:16;;;;;;;3.78;2.22;;;;;;;;;;4951918;28;20032;-61
2023/07/22 14:13:42;;;;;;;6.03;2.63;;;;;;;;;;4966127;28;20050;-63
2023/07/22 14:16:08;;;;;;;3.67;2.40;;;;;;;;;;4970498;28;20307;-62
2023/07/22 14:18:34;;;;;;;2.53;2.13;;;;;;;;;;4968411;28;20046;-62
2023/07/22 14:21:00;;;;;;;2.50;1.95;;;;;;;;;;4967000;28;20042;-62
2023/07/22 14:23:26;;;;;;;3.63;2.40;;;;;;;;;;4963343;28;20414;-61
2023/07/22 14:25:53;;;;;;;3.47;2.50;;;;;;;;;;4970433;28;20061;-62
2023/07/22 14:28:19;;;;;;;3.95;2.30;;;;;;;;;;4966559;28;20223;-62
2023/07/22 14:30:45;;;;;;;3.30;2.40;;;;;;;;;;4967269;28;20398;-62
2023/07/22 14:33:12;;;;;;;3.10;2.30;;;;;;;;;;4951307;28;20035;-62
2023/07/22 14:35:38;;;;;;;5.45;2.65;;;;;;;;;;4966573;28;20051;-62
2023/07/22 14:38:04;;;;;;;4.88;2.65;;;;;;;;;;4970179;28;20400;-61
2023/07/22 14:40:30;;;;;;;4.00;2.50;;;;;;;;;;4966578;28;20047;-61
2023/07/22 14:42:56;;;;;;;4.65;2.85;;;;;;;;;;4950025;28;20035;-62
2023/07/22 14:45:22;;;;;;;4.32;2.40;;;;;;;;;;4950049;28;20054;-62
2023/07/22 14:47:49;;;;;;;3.28;2.30;;;;;;;;;;4971368;28;20038;-61